• location
  • image
Airport

AP V2 EN

 

 

Click here to view short presentation ->

Today

Saturday, 30 May 2015

Weather Forecast

Siauliai 16 °C
   

Aviation Weather Forecast

[source: ADDS]
METAR
EYSA 301405Z 21013KT 2100 TSRA FEW028 BKN032CB BKN084 16/14 Q1007 =
TAF
TAF EYSA 301400Z 3015/3024 16014KT 9000 BKN035 TEMPO 3015/3020 VRB28KT 3000 TSRA BKN010 BKN020CB =
SR / SS: 01:58 / 18:52 UTC (EYSA 2015-05-30)

Who's Online

We have 3 guests online

tic logo en